createdAt,value
2023-05-05T00:00:27.688Z,61.29
2023-05-05T00:01:31.094Z,61.70
2023-05-05T00:02:34.397Z,61.61
2023-05-05T00:03:37.836Z,61.59
2023-05-05T00:04:41.039Z,61.22
2023-05-05T00:05:43.978Z,60.74
2023-05-05T00:06:47.470Z,61.05
2023-05-05T00:07:50.570Z,61.45
2023-05-05T00:08:53.535Z,61.54
2023-05-05T00:09:56.880Z,61.20
2023-05-05T00:11:00.253Z,61.71
2023-05-05T00:12:03.274Z,61.98
2023-05-05T00:13:06.796Z,61.85
2023-05-05T00:14:09.897Z,61.90
2023-05-05T00:15:12.899Z,62.28
2023-05-05T00:16:16.527Z,62.75
2023-05-05T00:17:19.648Z,62.50
2023-05-05T00:18:22.945Z,62.45
2023-05-05T00:19:25.852Z,63.24
2023-05-05T00:20:28.842Z,64.08
2023-05-05T00:21:32.109Z,64.91
2023-05-05T00:22:35.001Z,64.87
2023-05-05T00:23:37.883Z,64.08
2023-05-05T00:24:41.130Z,62.83
2023-05-05T00:25:44.494Z,62.91
2023-05-05T00:26:47.403Z,63.42
2023-05-05T00:27:50.803Z,63.55
2023-05-05T00:28:53.845Z,63.29
2023-05-05T00:29:57.137Z,63.83
2023-05-05T00:31:00.189Z,63.83
2023-05-05T00:32:03.203Z,63.59
2023-05-05T00:33:06.298Z,63.65
2023-05-05T00:34:09.173Z,63.67
2023-05-05T00:35:12.232Z,63.49
2023-05-05T00:36:15.224Z,63.69
2023-05-05T00:37:18.147Z,64.07
2023-05-05T00:38:21.076Z,64.28
2023-05-05T00:39:24.565Z,64.44
2023-05-05T00:40:27.989Z,64.43
2023-05-05T00:41:30.977Z,64.24
2023-05-05T00:42:48.567Z,64.09
2023-05-05T00:43:51.370Z,64.00
2023-05-05T00:44:54.240Z,63.96
2023-05-05T00:46:02.509Z,64.20
2023-05-05T00:47:06.205Z,64.49
2023-05-05T00:48:09.667Z,64.35
2023-05-05T00:49:12.637Z,64.82
2023-05-05T00:50:25.484Z,63.69
2023-05-05T00:51:29.056Z,64.13
2023-05-05T00:52:32.235Z,64.32
2023-05-05T00:53:36.100Z,64.02
2023-05-05T00:54:39.508Z,63.18
2023-05-05T00:55:42.723Z,63.71
2023-05-05T00:56:46.153Z,63.94
2023-05-05T00:57:49.869Z,62.75
2023-05-05T00:58:53.035Z,63.55
2023-05-05T00:59:56.612Z,63.72
2023-05-05T01:00:59.541Z,63.15
2023-05-05T01:02:02.722Z,63.36
2023-05-05T01:03:06.372Z,63.14
2023-05-05T01:04:09.512Z,63.10
2023-05-05T01:05:14.701Z,63.22
2023-05-05T01:06:23.585Z,63.54
2023-05-05T01:08:06.501Z,63.80
2023-05-05T01:09:37.601Z,63.43
2023-05-05T01:10:53.256Z,62.89
2023-05-05T01:12:18.201Z,63.22
2023-05-05T01:13:39.777Z,62.79
2023-05-05T01:14:50.603Z,62.65
2023-05-05T01:16:07.568Z,62.79
2023-05-05T01:17:23.367Z,62.67
2023-05-05T01:18:50.649Z,62.94
2023-05-05T01:20:25.119Z,63.37
2023-05-05T01:21:38.874Z,62.64
2023-05-05T01:22:53.607Z,62.94
2023-05-05T01:24:34.611Z,62.50
2023-05-05T01:25:49.370Z,62.70
2023-05-05T01:27:11.331Z,62.64
2023-05-05T01:28:14.165Z,63.04
2023-05-05T01:29:28.108Z,62.56
2023-05-05T01:30:34.058Z,63.06
2023-05-05T01:31:52.295Z,64.16
2023-05-05T01:33:01.149Z,64.21
2023-05-05T01:34:10.452Z,64.80
2023-05-05T01:35:21.689Z,65.29
2023-05-05T01:36:28.958Z,65.30
2023-05-05T01:37:51.206Z,64.67
2023-05-05T01:39:01.672Z,65.12
2023-05-05T01:40:08.572Z,66.05
2023-05-05T01:41:17.728Z,66.57
2023-05-05T01:42:22.655Z,66.92
2023-05-05T01:43:29.879Z,67.29
2023-05-05T01:44:36.866Z,67.22
2023-05-05T01:45:43.887Z,67.56
2023-05-05T01:46:49.325Z,67.86
2023-05-05T01:47:54.917Z,68.13
2023-05-05T01:48:59.556Z,68.50
2023-05-05T01:50:04.642Z,68.84
2023-05-05T01:51:09.297Z,68.93
2023-05-05T01:52:13.765Z,69.25
2023-05-05T01:53:19.303Z,69.63
2023-05-05T01:54:24.962Z,69.97
2023-05-05T01:55:29.785Z,70.40
2023-05-05T01:56:33.644Z,70.59
2023-05-05T01:57:43.896Z,71.23
2023-05-05T01:58:47.923Z,71.33
2023-05-05T01:59:53.062Z,71.94
2023-05-05T02:00:57.912Z,72.40
2023-05-05T02:02:03.745Z,72.31
2023-05-05T02:03:08.822Z,72.66
2023-05-05T02:04:14.647Z,72.54
2023-05-05T02:05:19.851Z,72.45
2023-05-05T02:06:24.298Z,72.94
2023-05-05T02:07:28.459Z,73.14
2023-05-05T02:08:32.950Z,73.38
2023-05-05T02:09:37.845Z,74.47
2023-05-05T02:10:41.364Z,74.44
2023-05-05T02:11:44.463Z,74.51
2023-05-05T02:12:48.078Z,74.27
2023-05-05T02:13:52.277Z,74.45
2023-05-05T02:14:57.968Z,74.86
2023-05-05T02:16:01.997Z,74.93
2023-05-05T02:17:05.399Z,75.01
2023-05-05T02:18:09.900Z,75.29
2023-05-05T02:19:14.780Z,75.34
2023-05-05T02:20:20.091Z,75.43
2023-05-05T02:21:23.445Z,75.87
2023-05-05T02:22:26.493Z,76.09
2023-05-05T02:23:30.369Z,76.25
2023-05-05T02:24:33.789Z,76.68
2023-05-05T02:25:46.132Z,77.09
2023-05-05T02:26:52.308Z,77.23
2023-05-05T02:27:58.145Z,77.76
2023-05-05T02:29:08.214Z,78.29
2023-05-05T02:30:14.630Z,78.22
2023-05-05T02:31:21.012Z,78.65
2023-05-05T02:32:39.756Z,78.53
2023-05-05T02:33:44.715Z,79.11
2023-05-05T02:34:50.218Z,79.40
2023-05-05T02:35:55.785Z,78.87
2023-05-05T02:37:03.081Z,79.33
2023-05-05T02:38:08.414Z,79.63
2023-05-05T02:39:15.469Z,80.17
2023-05-05T02:40:24.931Z,80.51
2023-05-05T02:41:29.946Z,80.44
2023-05-05T02:42:37.141Z,80.53
2023-05-05T02:43:42.806Z,81.14
2023-05-05T02:44:46.683Z,81.38
2023-05-05T02:45:49.963Z,80.98
2023-05-05T02:46:54.562Z,81.17
2023-05-05T02:47:57.843Z,81.39
2023-05-05T02:49:00.989Z,80.79
2023-05-05T02:50:07.577Z,80.57
2023-05-05T02:51:10.756Z,80.47
2023-05-05T02:52:14.767Z,80.30
2023-05-05T02:53:19.670Z,80.13
2023-05-05T02:54:22.799Z,79.90
2023-05-05T02:55:38.417Z,79.78
2023-05-05T02:56:47.376Z,79.08
2023-05-05T02:58:01.140Z,79.01
2023-05-05T02:59:18.160Z,78.99
2023-05-05T03:00:30.335Z,79.01
2023-05-05T03:02:00.912Z,77.88
2023-05-05T03:03:07.531Z,78.42
2023-05-05T03:04:21.898Z,78.49
2023-05-05T03:05:31.295Z,77.31
2023-05-05T03:06:43.056Z,77.56
2023-05-05T03:08:11.361Z,77.02
2023-05-05T03:09:32.633Z,77.61
2023-05-05T03:10:44.476Z,77.50
2023-05-05T03:11:53.624Z,77.12
2023-05-05T03:13:00.334Z,77.16
2023-05-05T03:14:10.486Z,77.42
2023-05-05T03:15:14.570Z,75.99
2023-05-05T03:16:19.023Z,75.78
2023-05-05T03:17:24.198Z,76.53
2023-05-05T03:18:29.846Z,76.75
2023-05-05T03:19:36.573Z,76.87
2023-05-05T03:20:40.998Z,76.58
2023-05-05T03:21:44.373Z,76.83
2023-05-05T03:22:48.241Z,77.12
2023-05-05T03:23:51.234Z,76.60
2023-05-05T03:24:54.207Z,76.85
2023-05-05T03:25:57.213Z,76.57
2023-05-05T03:27:00.487Z,76.71
2023-05-05T03:28:03.433Z,76.25
2023-05-05T03:29:07.147Z,75.67
2023-05-05T03:30:10.842Z,75.69
2023-05-05T03:31:14.164Z,75.66
2023-05-05T03:32:17.175Z,75.01
2023-05-05T03:33:20.885Z,74.85
2023-05-05T03:34:23.656Z,75.32
2023-05-05T03:35:26.598Z,75.45
2023-05-05T03:36:30.103Z,75.10
2023-05-05T03:37:33.101Z,75.45
2023-05-05T03:38:35.942Z,75.45
2023-05-05T03:39:39.054Z,75.81
2023-05-05T03:40:44.568Z,76.14
2023-05-05T03:41:47.740Z,75.97
2023-05-05T03:42:51.001Z,75.89
2023-05-05T03:43:54.334Z,76.37
2023-05-05T03:44:57.438Z,76.47
2023-05-05T03:46:00.474Z,76.35
2023-05-05T03:47:03.635Z,76.61
2023-05-05T03:48:07.176Z,76.36
2023-05-05T03:49:10.182Z,76.62
2023-05-05T03:50:13.230Z,77.74
2023-05-05T03:51:24.827Z,77.77
2023-05-05T03:52:27.862Z,78.21
2023-05-05T03:53:30.934Z,78.20
2023-05-05T03:54:33.921Z,78.53
2023-05-05T03:55:37.231Z,78.48
2023-05-05T03:56:40.293Z,78.61
2023-05-05T03:57:43.214Z,78.99
2023-05-05T03:58:46.423Z,78.35
2023-05-05T03:59:49.231Z,78.13
2023-05-05T04:00:52.519Z,78.70
2023-05-05T04:01:55.476Z,79.26
2023-05-05T04:02:58.593Z,79.39
2023-05-05T04:04:02.028Z,79.14
2023-05-05T04:05:05.390Z,79.30
2023-05-05T04:06:08.251Z,79.39
2023-05-05T04:07:11.524Z,79.44
2023-05-05T04:08:14.519Z,79.62
2023-05-05T04:09:17.507Z,79.82
2023-05-05T04:10:20.417Z,80.25
2023-05-05T04:11:23.513Z,80.25
2023-05-05T04:12:26.519Z,80.38
2023-05-05T04:13:29.823Z,80.88
2023-05-05T04:14:32.896Z,81.09
2023-05-05T04:15:35.937Z,81.46
2023-05-05T04:16:39.041Z,81.40
2023-05-05T04:17:43.097Z,81.84
2023-05-05T04:18:46.396Z,82.18
2023-05-05T04:19:49.490Z,82.07
2023-05-05T04:20:52.546Z,81.97
2023-05-05T04:21:55.550Z,81.70
2023-05-05T04:22:58.537Z,81.32
2023-05-05T04:24:01.515Z,81.61
2023-05-05T04:25:04.857Z,81.21
2023-05-05T04:26:07.782Z,80.92
2023-05-05T04:27:10.607Z,81.17
2023-05-05T04:28:13.662Z,81.32
2023-05-05T04:29:17.354Z,81.54
2023-05-05T04:30:20.562Z,81.19
2023-05-05T04:31:23.865Z,81.08
2023-05-05T04:32:27.492Z,81.13
2023-05-05T04:33:31.003Z,81.41
2023-05-05T04:34:33.970Z,81.58
2023-05-05T04:35:36.795Z,81.39
2023-05-05T04:36:39.760Z,81.62
2023-05-05T04:37:42.903Z,82.07
2023-05-05T04:38:46.133Z,82.00
2023-05-05T04:39:49.455Z,81.93
2023-05-05T04:40:52.659Z,81.99
2023-05-05T04:41:55.740Z,81.87
2023-05-05T04:42:58.728Z,81.91
2023-05-05T04:44:01.760Z,82.27
2023-05-05T04:45:05.286Z,82.41
2023-05-05T04:46:08.207Z,82.57
2023-05-05T04:47:12.610Z,82.61
2023-05-05T04:48:17.838Z,83.08
2023-05-05T04:49:20.805Z,83.33
2023-05-05T04:50:23.880Z,83.29
2023-05-05T04:51:27.929Z,83.58
2023-05-05T04:52:30.962Z,83.33
2023-05-05T04:53:34.130Z,83.24
2023-05-05T04:54:37.914Z,83.37
2023-05-05T04:55:40.856Z,83.80
2023-05-05T04:56:44.722Z,83.72
2023-05-05T04:57:47.751Z,83.88
2023-05-05T04:58:50.944Z,84.08
2023-05-05T04:59:53.908Z,84.45
2023-05-05T05:00:56.904Z,84.65
2023-05-05T05:02:00.015Z,84.86
2023-05-05T05:03:03.376Z,85.20
2023-05-05T05:04:06.492Z,85.19
2023-05-05T05:05:10.035Z,84.98
2023-05-05T05:06:12.980Z,84.80
2023-05-05T05:07:15.963Z,84.99
2023-05-05T05:08:19.119Z,85.20
2023-05-05T05:09:22.158Z,85.36
2023-05-05T05:10:25.066Z,85.39
2023-05-05T05:11:28.275Z,85.42
2023-05-05T05:12:31.408Z,85.81
2023-05-05T05:13:34.376Z,85.83
2023-05-05T05:14:38.417Z,85.48
2023-05-05T05:15:42.288Z,85.24
2023-05-05T05:16:45.709Z,85.02
2023-05-05T05:17:48.786Z,84.82
2023-05-05T05:18:51.770Z,84.42
2023-05-05T05:19:55.633Z,84.34
2023-05-05T05:20:58.806Z,84.27
2023-05-05T05:22:01.791Z,84.23
2023-05-05T05:23:04.813Z,84.23
2023-05-05T05:24:07.885Z,84.01
2023-05-05T05:25:11.212Z,83.71
2023-05-05T05:26:14.234Z,83.57
2023-05-05T05:27:17.188Z,83.33
2023-05-05T05:28:20.404Z,83.00
2023-05-05T05:29:23.329Z,82.78
2023-05-05T05:30:26.288Z,82.65
2023-05-05T05:31:29.173Z,82.32
2023-05-05T05:32:32.809Z,81.04
2023-05-05T05:33:35.714Z,81.49
2023-05-05T05:34:38.735Z,81.25
2023-05-05T05:35:41.782Z,80.80
2023-05-05T05:36:44.945Z,80.11
2023-05-05T05:37:47.978Z,79.58
2023-05-05T05:38:51.090Z,78.94
2023-05-05T05:39:53.954Z,77.51
2023-05-05T05:40:56.966Z,77.16
2023-05-05T05:42:01.061Z,76.21
2023-05-05T05:43:04.419Z,75.56
2023-05-05T05:44:07.290Z,75.66
2023-05-05T05:45:10.666Z,75.74
2023-05-05T05:46:13.811Z,73.85
2023-05-05T05:47:16.726Z,73.24
2023-05-05T05:48:19.648Z,66.52
2023-05-05T05:49:22.544Z,67.22
2023-05-05T05:50:28.786Z,67.79
2023-05-05T05:51:31.926Z,67.81
2023-05-05T05:52:36.442Z,67.71
2023-05-05T05:53:39.334Z,64.87
2023-05-05T05:54:42.333Z,64.87
2023-05-05T05:55:46.836Z,64.85
2023-05-05T05:56:49.815Z,65.94
2023-05-05T05:57:52.723Z,66.42
2023-05-05T05:58:55.707Z,65.63
2023-05-05T06:00:00.494Z,66.48
2023-05-05T06:01:05.441Z,66.63
2023-05-05T06:02:08.421Z,66.70
2023-05-05T06:03:12.449Z,66.37
2023-05-05T06:04:15.936Z,65.56
2023-05-05T06:05:18.871Z,65.70
2023-05-05T06:06:22.212Z,65.44
2023-05-05T06:07:25.505Z,62.54
2023-05-05T06:08:28.515Z,62.32
2023-05-05T06:09:31.755Z,61.78
2023-05-05T06:10:35.125Z,62.37
2023-05-05T06:11:38.618Z,62.67
2023-05-05T06:12:41.736Z,63.11
2023-05-05T06:13:47.818Z,62.27
2023-05-05T06:14:50.894Z,62.20
2023-05-05T06:15:53.940Z,62.57
2023-05-05T06:16:57.008Z,61.50
2023-05-05T06:18:00.109Z,61.88
2023-05-05T06:19:03.265Z,61.78
2023-05-05T06:20:07.521Z,61.93
2023-05-05T06:21:10.684Z,62.52
2023-05-05T06:22:13.735Z,61.75
2023-05-05T06:23:16.751Z,61.18
2023-05-05T06:24:19.737Z,61.38
2023-05-05T06:25:22.716Z,61.55
2023-05-05T06:26:26.322Z,61.64
2023-05-05T06:27:29.341Z,61.86
2023-05-05T06:28:32.507Z,61.81
2023-05-05T06:29:35.311Z,61.74
2023-05-05T06:30:38.316Z,61.34
2023-05-05T06:31:41.260Z,61.01
2023-05-05T06:32:44.319Z,58.96
2023-05-05T06:33:47.211Z,59.59
2023-05-05T06:34:50.206Z,60.06
2023-05-05T06:35:53.599Z,60.56
2023-05-05T06:36:56.619Z,59.95
2023-05-05T06:37:59.719Z,60.08
2023-05-05T06:39:02.711Z,60.79
2023-05-05T06:40:07.192Z,60.77
2023-05-05T06:41:10.284Z,59.17
2023-05-05T06:42:13.857Z,59.28
2023-05-05T06:43:18.829Z,60.19
2023-05-05T06:44:21.854Z,58.84
2023-05-05T06:45:24.857Z,58.65
2023-05-05T06:46:28.338Z,58.48
2023-05-05T06:47:31.916Z,57.99
2023-05-05T06:48:34.944Z,57.97
2023-05-05T06:49:37.858Z,58.43
2023-05-05T06:50:41.121Z,59.66
2023-05-05T06:51:44.648Z,59.54
2023-05-05T06:52:47.934Z,59.71
2023-05-05T06:53:51.394Z,59.81
2023-05-05T06:54:54.273Z,59.60
2023-05-05T06:55:57.199Z,59.22
2023-05-05T06:57:00.268Z,59.25
2023-05-05T06:58:06.028Z,59.64
2023-05-05T06:59:08.896Z,59.57
2023-05-05T07:00:14.118Z,58.55
2023-05-05T07:01:17.352Z,58.44
2023-05-05T07:02:20.403Z,58.47
2023-05-05T07:03:24.237Z,58.67
2023-05-05T07:04:27.134Z,59.83
2023-05-05T07:05:30.205Z,59.76
2023-05-05T07:06:33.346Z,59.75
2023-05-05T07:07:36.726Z,60.48
2023-05-05T07:08:39.550Z,60.42
2023-05-05T07:09:43.073Z,57.59
2023-05-05T07:10:46.099Z,57.15
2023-05-05T07:11:49.177Z,57.82
2023-05-05T07:12:52.752Z,57.79
2023-05-05T07:13:56.027Z,58.01
2023-05-05T07:14:59.020Z,58.52
2023-05-05T07:16:02.307Z,58.68
2023-05-05T07:17:05.707Z,55.87
2023-05-05T07:18:08.688Z,56.61
2023-05-05T07:19:11.787Z,57.39
2023-05-05T07:20:14.751Z,58.05
2023-05-05T07:21:17.781Z,57.92
2023-05-05T07:22:20.884Z,58.30
2023-05-05T07:23:23.973Z,58.62
2023-05-05T07:24:26.959Z,57.35
2023-05-05T07:25:29.970Z,56.87
2023-05-05T07:26:33.228Z,57.44
2023-05-05T07:27:37.487Z,57.85
2023-05-05T07:28:40.412Z,58.38
2023-05-05T07:29:43.789Z,58.00
2023-05-05T07:30:46.697Z,57.59
2023-05-05T07:31:49.705Z,55.94
2023-05-05T07:32:52.990Z,53.86
2023-05-05T07:33:55.791Z,53.95
2023-05-05T07:34:59.099Z,53.80
2023-05-05T07:36:02.351Z,54.13
2023-05-05T07:37:05.434Z,55.18
2023-05-05T07:38:10.768Z,55.64
2023-05-05T07:39:15.491Z,56.28
2023-05-05T07:40:18.901Z,57.05
2023-05-05T07:41:22.131Z,55.34
2023-05-05T07:42:25.085Z,54.54
2023-05-05T07:43:27.910Z,54.27
2023-05-05T07:44:31.003Z,54.31
2023-05-05T07:45:34.084Z,52.72
2023-05-05T07:46:37.441Z,52.58
2023-05-05T07:47:41.030Z,52.92
2023-05-05T07:48:44.106Z,53.17
2023-05-05T07:49:47.065Z,53.45
2023-05-05T07:50:50.127Z,54.19
2023-05-05T07:51:53.674Z,53.87
2023-05-05T07:53:06.126Z,53.20
2023-05-05T07:54:17.731Z,53.04
2023-05-05T07:55:21.126Z,53.19
2023-05-05T07:56:24.213Z,51.75
2023-05-05T07:57:27.143Z,50.49
2023-05-05T07:58:29.974Z,51.45
2023-05-05T07:59:32.900Z,51.71
2023-05-05T08:00:35.938Z,52.08
2023-05-05T08:01:39.642Z,52.88
2023-05-05T08:02:42.727Z,52.38
2023-05-05T08:03:45.967Z,51.98
2023-05-05T08:04:48.932Z,51.76
2023-05-05T08:05:54.524Z,50.24
2023-05-05T08:06:57.965Z,49.81
2023-05-05T08:08:00.930Z,50.06
2023-05-05T08:09:03.998Z,49.94
2023-05-05T08:10:11.672Z,50.91
2023-05-05T08:11:15.272Z,51.35
2023-05-05T08:12:19.433Z,50.47
2023-05-05T08:13:22.507Z,50.77
2023-05-05T08:14:25.630Z,50.53
2023-05-05T08:15:28.678Z,49.76
2023-05-05T08:16:32.492Z,50.25
2023-05-05T08:17:49.372Z,51.12
2023-05-05T08:18:52.655Z,51.40
2023-05-05T08:19:55.788Z,51.77
2023-05-05T08:20:58.936Z,51.78
2023-05-05T08:22:02.078Z,50.54
2023-05-05T08:23:05.825Z,49.16
2023-05-05T08:24:09.499Z,48.97
2023-05-05T08:25:13.546Z,48.94
2023-05-05T08:26:16.823Z,49.62
2023-05-05T08:27:19.898Z,50.77
2023-05-05T08:28:23.410Z,51.09
2023-05-05T08:29:26.522Z,50.00
2023-05-05T08:30:30.382Z,50.24
2023-05-05T08:31:34.763Z,50.85
2023-05-05T08:32:38.772Z,51.29
2023-05-05T08:33:41.841Z,48.20
2023-05-05T08:34:44.809Z,48.44
2023-05-05T08:35:49.287Z,49.51
2023-05-05T08:36:52.908Z,49.11
2023-05-05T08:37:58.121Z,48.90
2023-05-05T08:39:02.264Z,50.13
2023-05-05T08:40:06.066Z,47.53
2023-05-05T08:41:13.283Z,48.33
2023-05-05T08:42:25.762Z,49.13
2023-05-05T08:43:36.761Z,50.14
2023-05-05T08:44:40.009Z,49.39
2023-05-05T08:45:43.608Z,47.77
2023-05-05T08:46:47.113Z,46.98
2023-05-05T08:47:50.227Z,48.02
2023-05-05T08:48:55.598Z,47.62
2023-05-05T08:49:59.746Z,48.91
2023-05-05T08:51:06.980Z,48.83
2023-05-05T08:52:14.123Z,50.27
2023-05-05T08:53:22.330Z,49.20
2023-05-05T08:54:27.718Z,48.90
2023-05-05T08:55:35.089Z,48.71
2023-05-05T08:56:43.871Z,47.38
2023-05-05T08:57:56.740Z,47.51
2023-05-05T08:59:04.011Z,46.80
2023-05-05T09:00:10.093Z,47.02
2023-05-05T09:01:15.037Z,47.49
2023-05-05T09:02:18.991Z,47.35
2023-05-05T09:03:22.476Z,48.48
2023-05-05T09:04:25.504Z,50.66
2023-05-05T09:05:28.554Z,47.37
2023-05-05T09:06:34.276Z,46.63
2023-05-05T09:07:38.677Z,48.33
2023-05-05T09:08:41.745Z,48.30
2023-05-05T09:09:45.005Z,46.79
2023-05-05T09:10:49.373Z,47.29
2023-05-05T09:11:54.211Z,47.65
2023-05-05T09:12:57.950Z,47.52
2023-05-05T09:15:22.875Z,47.27
2023-05-05T09:16:26.012Z,46.57
2023-05-05T09:17:29.715Z,46.45
2023-05-05T09:18:32.898Z,47.06
2023-05-05T09:20:08.572Z,47.13
2023-05-05T09:21:26.260Z,48.79
2023-05-05T09:22:34.372Z,47.97
2023-05-05T09:23:38.368Z,48.34
2023-05-05T09:24:55.373Z,48.62
2023-05-05T09:26:11.298Z,49.24
2023-05-05T09:27:25.851Z,49.66
2023-05-05T09:28:29.436Z,50.23
2023-05-05T09:29:32.489Z,50.68
2023-05-05T09:30:36.313Z,49.10
2023-05-05T09:31:39.436Z,48.80
2023-05-05T09:32:52.968Z,49.08
2023-05-05T09:33:57.360Z,50.14
2023-05-05T09:35:01.546Z,49.31
2023-05-05T09:36:04.693Z,50.74
2023-05-05T09:37:07.629Z,49.11
2023-05-05T09:38:13.464Z,48.63
2023-05-05T09:39:20.364Z,48.79
2023-05-05T09:40:23.609Z,49.53
2023-05-05T09:41:41.274Z,50.14
2023-05-05T09:42:45.056Z,49.68
2023-05-05T09:43:52.757Z,48.71
2023-05-05T09:44:59.685Z,49.34
2023-05-05T09:46:07.876Z,47.58
2023-05-05T09:47:26.064Z,47.42
2023-05-05T09:48:32.927Z,47.66
2023-05-05T09:49:37.645Z,46.85
2023-05-05T09:50:44.964Z,46.90
2023-05-05T09:51:49.363Z,45.19
2023-05-05T09:53:03.149Z,45.29
2023-05-05T09:54:06.428Z,47.38
2023-05-05T09:55:18.572Z,47.88
2023-05-05T09:56:21.481Z,46.63
2023-05-05T09:57:29.422Z,46.34
2023-05-05T09:58:32.576Z,45.82
2023-05-05T09:59:35.858Z,45.82
2023-05-05T10:00:39.866Z,45.45
2023-05-05T10:01:44.054Z,43.78
2023-05-05T10:02:47.103Z,43.65
2023-05-05T10:03:53.272Z,43.92
2023-05-05T10:05:08.321Z,43.41
2023-05-05T10:06:11.720Z,44.16
2023-05-05T10:07:24.749Z,43.50
2023-05-05T10:08:34.536Z,43.35
2023-05-05T10:09:37.640Z,43.91
2023-05-05T10:10:51.797Z,43.61
2023-05-05T10:11:58.183Z,43.86
2023-05-05T10:13:02.060Z,43.07
2023-05-05T10:14:08.007Z,42.41
2023-05-05T10:15:12.460Z,41.64
2023-05-05T10:16:18.658Z,42.10
2023-05-05T10:17:24.000Z,41.08
2023-05-05T10:18:28.877Z,40.45
2023-05-05T10:19:35.384Z,39.90
2023-05-05T10:20:39.116Z,39.74
2023-05-05T10:21:46.963Z,40.58
2023-05-05T10:22:53.669Z,42.27
2023-05-05T10:24:09.801Z,41.36
2023-05-05T10:25:18.521Z,39.88
2023-05-05T10:26:23.442Z,41.12
2023-05-05T10:27:28.719Z,41.09
2023-05-05T10:28:42.332Z,40.74
2023-05-05T10:29:51.064Z,40.33
2023-05-05T10:30:58.798Z,40.19
2023-05-05T10:32:52.018Z,41.11
2023-05-05T10:34:03.924Z,41.09
2023-05-05T10:35:11.510Z,43.19
2023-05-05T10:36:15.355Z,42.69
2023-05-05T10:37:20.276Z,40.62
2023-05-05T10:38:26.835Z,41.51
2023-05-05T10:39:30.365Z,41.59
2023-05-05T10:40:34.245Z,41.47
2023-05-05T10:41:38.045Z,41.84
2023-05-05T10:42:41.236Z,42.17
2023-05-05T10:43:45.444Z,40.63
2023-05-05T10:44:49.395Z,41.55
2023-05-05T10:45:53.607Z,41.16
2023-05-05T10:46:58.381Z,39.57
2023-05-05T10:48:07.366Z,40.01
2023-05-05T10:49:18.196Z,40.88
2023-05-05T10:50:27.352Z,40.07
2023-05-05T10:51:57.753Z,38.17
2023-05-05T10:53:19.006Z,38.84
2023-05-05T10:55:12.510Z,37.01
2023-05-05T10:56:26.912Z,38.50
2023-05-05T10:57:32.765Z,39.36
2023-05-05T10:58:51.136Z,40.19
2023-05-05T11:00:01.606Z,38.25
2023-05-05T11:01:07.152Z,39.00
2023-05-05T11:02:28.684Z,39.50
2023-05-05T11:03:32.479Z,41.37
2023-05-05T11:04:35.382Z,39.92
2023-05-05T11:06:04.398Z,39.71
2023-05-05T11:07:13.827Z,38.25
2023-05-05T11:08:27.383Z,39.57
2023-05-05T11:09:30.767Z,39.42
2023-05-05T11:10:45.019Z,37.71
2023-05-05T11:12:05.712Z,38.49
2023-05-05T11:13:08.925Z,38.85
2023-05-05T11:14:22.733Z,39.54
2023-05-05T11:15:31.486Z,39.70
2023-05-05T11:16:48.115Z,40.01
2023-05-05T11:17:51.428Z,37.44
2023-05-05T11:18:54.491Z,37.72
2023-05-05T11:19:57.896Z,37.44
2023-05-05T11:21:00.717Z,37.76
2023-05-05T11:22:03.608Z,36.08
2023-05-05T11:23:06.577Z,35.46
2023-05-05T11:24:31.541Z,36.31
2023-05-05T11:25:37.857Z,35.26
2023-05-05T11:26:51.992Z,35.37
2023-05-05T11:28:09.422Z,37.14
2023-05-05T11:29:12.302Z,37.61
2023-05-05T11:30:15.605Z,37.67
2023-05-05T11:31:19.949Z,37.84
2023-05-05T11:32:23.318Z,36.24
2023-05-05T11:33:32.169Z,36.59
2023-05-05T11:34:35.066Z,37.08
2023-05-05T11:36:06.153Z,37.19
2023-05-05T11:37:10.734Z,36.49
2023-05-05T11:38:15.958Z,36.62
2023-05-05T11:39:21.571Z,37.13
2023-05-05T11:40:31.149Z,38.01
2023-05-05T11:41:52.608Z,38.64
2023-05-05T11:43:07.723Z,38.26
2023-05-05T11:44:14.365Z,39.54
2023-05-05T11:45:22.453Z,39.33
2023-05-05T11:46:25.500Z,38.64
2023-05-05T11:47:31.066Z,38.48
2023-05-05T11:48:48.051Z,39.40
2023-05-05T11:49:51.176Z,40.24
2023-05-05T11:50:54.818Z,41.17
2023-05-05T11:52:02.356Z,39.04
2023-05-05T11:53:05.575Z,40.46
2023-05-05T11:54:08.598Z,40.45
2023-05-05T11:55:11.789Z,40.67
2023-05-05T11:56:21.055Z,41.99
2023-05-05T11:57:29.277Z,41.54
2023-05-05T11:58:32.258Z,42.81
2023-05-05T11:59:37.699Z,43.61
2023-05-05T12:00:41.006Z,43.17
2023-05-05T12:01:44.068Z,43.27
2023-05-05T12:02:47.505Z,43.32
2023-05-05T12:03:50.817Z,43.39
2023-05-05T12:04:54.519Z,43.62
2023-05-05T12:05:57.572Z,40.67
2023-05-05T12:07:00.999Z,42.42
2023-05-05T12:08:06.075Z,41.93
2023-05-05T12:09:19.739Z,41.86
2023-05-05T12:10:24.022Z,43.01
2023-05-05T12:11:27.193Z,43.96
2023-05-05T12:12:38.912Z,44.38
2023-05-05T12:13:42.171Z,44.41
2023-05-05T12:14:47.598Z,40.83
2023-05-05T12:15:50.726Z,43.04
2023-05-05T12:16:58.160Z,40.36
2023-05-05T12:18:03.219Z,41.27
2023-05-05T12:19:08.580Z,41.91
2023-05-05T12:20:13.412Z,41.92
2023-05-05T12:21:21.099Z,41.07
2023-05-05T12:22:26.006Z,41.21
2023-05-05T12:23:30.751Z,41.39
2023-05-05T12:24:33.940Z,40.46
2023-05-05T12:25:38.492Z,40.86
2023-05-05T12:26:42.154Z,40.30
2023-05-05T12:27:53.477Z,39.52
2023-05-05T12:29:00.696Z,39.31
2023-05-05T12:30:16.928Z,38.86
2023-05-05T12:31:20.252Z,38.15
2023-05-05T12:32:33.079Z,36.67
2023-05-05T12:33:40.146Z,37.20
2023-05-05T12:34:43.303Z,38.09
2023-05-05T12:35:46.236Z,36.89
2023-05-05T12:36:49.911Z,37.47
2023-05-05T12:37:53.074Z,38.43
2023-05-05T12:38:56.279Z,38.49
2023-05-05T12:39:59.485Z,36.74
2023-05-05T12:41:03.320Z,36.13
2023-05-05T12:42:06.824Z,35.97
2023-05-05T12:43:09.942Z,36.09
2023-05-05T12:44:13.112Z,36.28
2023-05-05T12:45:19.414Z,35.67
2023-05-05T12:46:23.613Z,36.48
2023-05-05T12:47:33.358Z,36.99
2023-05-05T12:48:38.654Z,36.03
2023-05-05T12:49:46.184Z,36.84
2023-05-05T12:50:49.216Z,36.78
2023-05-05T12:51:57.323Z,37.82
2023-05-05T12:53:00.424Z,37.62
2023-05-05T12:54:09.891Z,36.40
2023-05-05T12:55:13.628Z,36.13
2023-05-05T12:56:41.494Z,36.67
2023-05-05T12:58:01.703Z,37.19
2023-05-05T12:59:07.853Z,38.59
2023-05-05T13:00:18.380Z,38.17
2023-05-05T13:01:21.541Z,37.33
2023-05-05T13:02:34.380Z,38.27
2023-05-05T13:03:37.581Z,38.26
2023-05-05T13:04:54.200Z,38.49
2023-05-05T13:05:57.165Z,37.70
2023-05-05T13:07:16.520Z,35.34
2023-05-05T13:08:19.755Z,36.12
2023-05-05T13:09:36.258Z,35.58
2023-05-05T13:10:44.489Z,38.40
2023-05-05T13:11:47.734Z,38.94
2023-05-05T13:12:50.925Z,39.09
2023-05-05T13:13:54.405Z,40.30
2023-05-05T13:14:57.221Z,39.36
2023-05-05T13:16:00.459Z,40.03
2023-05-05T13:17:03.742Z,40.21
2023-05-05T13:18:06.745Z,39.61
2023-05-05T13:19:10.719Z,39.64
2023-05-05T13:20:14.389Z,38.16
2023-05-05T13:21:17.467Z,37.10
2023-05-05T13:22:20.557Z,36.19
2023-05-05T13:23:24.666Z,36.52
2023-05-05T13:24:46.402Z,36.94
2023-05-05T13:25:53.386Z,37.14
2023-05-05T13:26:56.800Z,36.59
2023-05-05T13:27:59.867Z,35.57
2023-05-05T13:29:02.765Z,36.36
2023-05-05T13:30:06.657Z,36.53
2023-05-05T13:31:09.878Z,37.34
2023-05-05T13:32:13.056Z,37.21
2023-05-05T13:33:16.155Z,37.33
2023-05-05T13:34:19.243Z,38.81
2023-05-05T13:35:22.204Z,38.12
2023-05-05T13:36:25.257Z,38.75
2023-05-05T13:37:28.328Z,37.28
2023-05-05T13:38:34.707Z,36.62
2023-05-05T13:39:37.770Z,37.44
2023-05-05T13:40:40.887Z,37.58
2023-05-05T13:41:47.038Z,37.33
2023-05-05T13:42:50.041Z,38.27
2023-05-05T13:43:53.476Z,38.78
2023-05-05T13:44:56.410Z,37.97
2023-05-05T13:46:12.325Z,37.36
2023-05-05T13:47:22.260Z,36.82
2023-05-05T13:48:25.314Z,38.40
2023-05-05T13:49:28.262Z,36.63
2023-05-05T13:50:32.165Z,36.78
2023-05-05T13:51:35.476Z,36.90
2023-05-05T13:52:38.758Z,36.36
2023-05-05T13:53:44.278Z,38.10
2023-05-05T13:54:47.221Z,38.55
2023-05-05T13:55:50.387Z,37.49
2023-05-05T13:56:53.355Z,37.50
2023-05-05T13:57:56.573Z,38.63
2023-05-05T13:58:59.836Z,38.02
2023-05-05T14:00:04.584Z,37.81
2023-05-05T14:01:07.768Z,36.93
2023-05-05T14:02:11.838Z,38.28
2023-05-05T14:03:14.805Z,36.93
2023-05-05T14:04:17.843Z,38.11
2023-05-05T14:05:21.791Z,39.51
2023-05-05T14:06:24.856Z,37.22
2023-05-05T14:07:28.391Z,38.24
2023-05-05T14:08:31.455Z,37.75